createdAt,value
2022-11-10T00:00:49.171Z,19.00
2022-11-10T00:03:37.026Z,26.57
2022-11-10T00:06:25.559Z,26.00
2022-11-10T00:09:16.117Z,22.30
2022-11-10T00:12:06.252Z,27.13
2022-11-10T00:15:11.103Z,28.93
2022-11-10T00:17:58.128Z,27.30
2022-11-10T00:20:44.844Z,25.43
2022-11-10T00:23:31.678Z,20.03
2022-11-10T00:26:20.975Z,29.43
2022-11-10T00:29:07.854Z,19.73
2022-11-10T00:31:54.633Z,29.13
2022-11-10T00:34:41.313Z,35.80
2022-11-10T00:37:28.033Z,29.63
2022-11-10T00:40:14.980Z,32.33
2022-11-10T00:43:02.965Z,28.03
2022-11-10T00:45:51.096Z,41.40
2022-11-10T00:48:38.355Z,45.03
2022-11-10T00:51:27.146Z,37.40
2022-11-10T00:54:14.927Z,36.83
2022-11-10T00:57:01.588Z,30.63
2022-11-10T01:00:07.938Z,31.73
2022-11-10T01:02:57.168Z,30.50
2022-11-10T01:05:45.013Z,37.97
2022-11-10T01:08:32.605Z,31.60
2022-11-10T01:11:21.137Z,33.77
2022-11-10T01:14:09.021Z,33.80
2022-11-10T01:16:57.282Z,30.87
2022-11-10T01:19:44.301Z,31.63
2022-11-10T01:22:31.741Z,39.77
2022-11-10T01:25:18.995Z,31.37
2022-11-10T01:28:06.003Z,29.43
2022-11-10T01:30:58.839Z,29.97
2022-11-10T01:33:47.071Z,29.77
2022-11-10T01:36:33.742Z,25.90
2022-11-10T01:39:20.588Z,44.63
2022-11-10T01:42:07.621Z,34.13
2022-11-10T01:45:32.171Z,39.23
2022-11-10T01:48:29.805Z,38.70
2022-11-10T01:51:21.120Z,47.97
2022-11-10T01:54:12.906Z,62.13
2022-11-10T01:57:03.557Z,42.03
2022-11-10T01:59:50.855Z,49.07
2022-11-10T02:02:43.010Z,41.33
2022-11-10T02:05:30.076Z,38.23
2022-11-10T02:08:19.863Z,47.90
2022-11-10T02:11:06.830Z,48.97
2022-11-10T02:13:54.300Z,42.10
2022-11-10T02:16:41.527Z,50.37
2022-11-10T02:19:28.621Z,48.27
2022-11-10T02:22:17.112Z,43.87
2022-11-10T02:25:04.669Z,46.40
2022-11-10T02:27:51.412Z,45.00
2022-11-10T02:30:38.577Z,48.70
2022-11-10T02:33:25.621Z,49.13
2022-11-10T02:36:12.979Z,39.93
2022-11-10T02:39:01.420Z,59.13
2022-11-10T02:41:48.644Z,67.50
2022-11-10T02:44:35.798Z,55.83
2022-11-10T02:47:23.608Z,64.43
2022-11-10T02:50:11.130Z,50.07
2022-11-10T02:52:57.916Z,71.23
2022-11-10T02:55:46.621Z,54.93
2022-11-10T02:58:33.606Z,55.50
2022-11-10T03:01:20.978Z,48.10
2022-11-10T03:04:07.978Z,44.50
2022-11-10T03:06:55.058Z,53.20
2022-11-10T03:09:42.104Z,45.57
2022-11-10T03:12:30.221Z,45.03
2022-11-10T03:15:17.466Z,47.50
2022-11-10T03:18:05.589Z,46.47
2022-11-10T03:20:52.715Z,40.47
2022-11-10T03:23:39.361Z,44.67
2022-11-10T03:26:26.080Z,40.20
2022-11-10T03:29:14.233Z,47.00
2022-11-10T03:32:01.154Z,51.70
2022-11-10T03:34:47.871Z,52.97
2022-11-10T03:37:34.982Z,47.97
2022-11-10T03:40:22.507Z,41.53
2022-11-10T03:43:09.521Z,43.10
2022-11-10T03:45:57.732Z,43.20
2022-11-10T03:48:47.488Z,52.93
2022-11-10T03:51:39.154Z,49.57
2022-11-10T03:54:26.143Z,47.40
2022-11-10T03:57:13.152Z,45.03
2022-11-10T03:59:59.833Z,81.20
2022-11-10T04:02:48.114Z,124.53
2022-11-10T04:05:52.237Z,47.33
2022-11-10T04:08:56.391Z,88.30
2022-11-10T04:12:01.230Z,173.80
2022-11-10T04:15:05.653Z,320.67
2022-11-10T04:17:54.158Z,318.83
2022-11-10T04:20:41.011Z,216.47
2022-11-10T04:23:30.989Z,159.70
2022-11-10T04:26:29.972Z,97.60
2022-11-10T04:29:18.676Z,92.30
2022-11-10T04:32:05.914Z,60.13
2022-11-10T04:34:54.207Z,40.03
2022-11-10T04:37:41.227Z,24.27
2022-11-10T04:40:27.920Z,35.00
2022-11-10T04:43:14.634Z,34.03
2022-11-10T04:46:01.924Z,32.83
2022-11-10T04:48:49.563Z,32.67
2022-11-10T04:51:40.069Z,32.60
2022-11-10T04:54:27.384Z,42.90
2022-11-10T04:57:14.002Z,33.17
2022-11-10T05:00:01.000Z,31.07
2022-11-10T05:02:47.681Z,34.63
2022-11-10T05:05:34.870Z,50.90
2022-11-10T05:08:23.129Z,59.77
2022-11-10T05:11:10.979Z,55.33
2022-11-10T05:13:57.803Z,51.47
2022-11-10T05:16:44.884Z,42.53
2022-11-10T05:19:31.888Z,42.50
2022-11-10T05:22:18.639Z,42.33
2022-11-10T05:25:08.493Z,46.40
2022-11-10T05:27:55.151Z,42.40
2022-11-10T05:30:42.667Z,73.97
2022-11-10T05:33:29.496Z,78.03
2022-11-10T05:36:16.672Z,106.80
2022-11-10T05:39:03.558Z,101.20
2022-11-10T05:41:51.870Z,121.77
2022-11-10T05:44:38.745Z,334.00
2022-11-10T05:47:25.741Z,273.00
2022-11-10T05:50:13.013Z,308.10
2022-11-10T05:52:59.820Z,93.63
2022-11-10T05:55:46.576Z,685.30
2022-11-10T05:58:34.571Z,661.97
2022-11-10T06:01:21.258Z,384.03
2022-11-10T06:04:08.163Z,168.60
2022-11-10T06:06:55.045Z,62.60
2022-11-10T06:09:41.960Z,69.37
2022-11-10T06:12:30.340Z,139.13
2022-11-10T06:15:18.945Z,110.63
2022-11-10T06:18:06.049Z,175.83
2022-11-10T06:20:52.927Z,88.03
2022-11-10T06:23:39.730Z,86.90
2022-11-10T06:26:26.351Z,84.43
2022-11-10T06:29:13.163Z,36.37
2022-11-10T06:32:01.705Z,52.30
2022-11-10T06:34:49.141Z,37.00
2022-11-10T06:37:36.038Z,50.07
2022-11-10T06:40:22.987Z,38.20
2022-11-10T06:43:10.599Z,42.83
2022-11-10T06:46:00.366Z,39.70
2022-11-10T06:48:48.499Z,33.87
2022-11-10T06:51:35.547Z,28.57
2022-11-10T06:54:22.430Z,33.80
2022-11-10T06:57:09.190Z,30.43
2022-11-10T06:59:56.318Z,37.73
2022-11-10T07:02:43.430Z,38.80
2022-11-10T07:05:31.762Z,39.13
2022-11-10T07:08:18.548Z,44.07
2022-11-10T07:11:05.556Z,35.17
2022-11-10T07:13:52.453Z,49.40
2022-11-10T07:16:39.446Z,45.30
2022-11-10T07:19:26.761Z,46.07
2022-11-10T07:22:15.424Z,60.43
2022-11-10T07:25:02.468Z,82.43
2022-11-10T07:27:54.989Z,26.93
2022-11-10T07:30:42.315Z,37.40
2022-11-10T07:33:30.337Z,46.03
2022-11-10T07:36:17.919Z,19.87
2022-11-10T07:39:06.224Z,24.10
2022-11-10T07:41:53.138Z,48.20
2022-11-10T07:44:39.951Z,39.03
2022-11-10T07:47:26.720Z,41.93
2022-11-10T07:50:13.947Z,36.30
2022-11-10T07:53:05.126Z,49.07
2022-11-10T07:55:54.912Z,44.60
2022-11-10T07:58:42.008Z,47.07
2022-11-10T08:01:28.810Z,53.87
2022-11-10T08:04:16.083Z,56.03
2022-11-10T08:07:02.960Z,41.70
2022-11-10T08:09:50.603Z,46.00
2022-11-10T08:12:38.821Z,47.70
2022-11-10T08:15:26.945Z,44.67
2022-11-10T08:18:18.390Z,88.97
2022-11-10T08:21:06.614Z,198.47
2022-11-10T08:23:53.329Z,230.10
2022-11-10T08:26:40.160Z,203.40
2022-11-10T08:29:28.238Z,242.50
2022-11-10T08:32:15.477Z,241.97
2022-11-10T08:35:02.315Z,200.60
2022-11-10T08:37:49.134Z,179.73
2022-11-10T08:40:36.067Z,220.03
2022-11-10T08:43:23.341Z,158.07
2022-11-10T08:46:12.024Z,79.73
2022-11-10T08:48:59.098Z,38.80
2022-11-10T08:51:46.047Z,28.77
2022-11-10T08:54:32.774Z,32.63
2022-11-10T08:57:19.643Z,52.30
2022-11-10T09:00:07.334Z,23.07
2022-11-10T09:02:56.107Z,20.70
2022-11-10T09:05:44.152Z,30.00
2022-11-10T09:08:33.827Z,17.03
2022-11-10T09:11:20.984Z,38.43
2022-11-10T09:14:07.696Z,20.77
2022-11-10T09:16:54.288Z,15.73
2022-11-10T09:19:42.466Z,16.97
2022-11-10T09:22:29.786Z,15.07
2022-11-10T09:25:16.649Z,15.20
2022-11-10T09:28:03.554Z,12.90
2022-11-10T09:30:51.803Z,12.47
2022-11-10T09:33:38.941Z,14.37
2022-11-10T09:36:27.077Z,13.97
2022-11-10T09:39:15.371Z,11.47
2022-11-10T09:42:02.412Z,11.93
2022-11-10T09:44:55.105Z,13.07
2022-11-10T09:48:02.445Z,12.57
2022-11-10T09:50:53.329Z,13.77
2022-11-10T09:53:48.483Z,12.93
2022-11-10T09:56:37.247Z,17.23
2022-11-10T09:59:30.046Z,12.27
2022-11-10T10:02:28.353Z,12.27
2022-11-10T10:05:46.959Z,15.03
2022-11-10T10:08:46.505Z,12.93
2022-11-10T10:11:52.817Z,9.93
2022-11-10T10:14:57.594Z,11.23
2022-11-10T10:17:53.851Z,11.10
2022-11-10T10:20:50.060Z,11.83
2022-11-10T10:24:07.615Z,10.90
2022-11-10T10:26:51.688Z,9.55
2022-11-10T10:29:42.021Z,9.25
2022-11-10T10:32:29.769Z,8.68
2022-11-10T10:35:18.251Z,8.23
2022-11-10T10:38:06.853Z,10.63
2022-11-10T10:40:58.507Z,8.73
2022-11-10T10:43:49.946Z,8.18
2022-11-10T10:46:46.349Z,8.77
2022-11-10T10:49:36.441Z,8.70
2022-11-10T10:52:25.452Z,6.90
2022-11-10T10:55:14.476Z,7.28
2022-11-10T10:58:03.270Z,6.80
2022-11-10T11:00:53.299Z,7.72
2022-11-10T11:03:43.830Z,6.30
2022-11-10T11:06:31.613Z,7.55
2022-11-10T11:09:23.693Z,7.30
2022-11-10T11:12:13.763Z,6.20
2022-11-10T11:15:14.983Z,5.70
2022-11-10T11:18:10.224Z,5.60
2022-11-10T11:21:03.550Z,9.60
2022-11-10T11:24:17.679Z,6.32
2022-11-10T11:27:11.603Z,7.13
2022-11-10T11:30:06.716Z,11.98
2022-11-10T11:33:20.459Z,4.82
2022-11-10T11:36:23.051Z,6.10
2022-11-10T11:39:21.881Z,3.97
2022-11-10T11:42:21.941Z,6.35
2022-11-10T11:45:17.736Z,3.70
2022-11-10T11:48:28.034Z,4.90
2022-11-10T11:51:19.922Z,7.28
2022-11-10T11:54:29.899Z,5.57
2022-11-10T11:57:31.663Z,5.45
2022-11-10T12:00:21.741Z,6.63
2022-11-10T12:03:30.088Z,6.53
2022-11-10T12:06:32.549Z,4.30
2022-11-10T12:09:29.390Z,5.03
2022-11-10T12:12:36.710Z,6.40
2022-11-10T12:15:31.997Z,6.30
2022-11-10T12:18:30.453Z,8.10
2022-11-10T12:21:24.182Z,4.97
2022-11-10T12:24:38.013Z,6.25
2022-11-10T12:27:29.605Z,3.85
2022-11-10T12:30:18.413Z,5.03
2022-11-10T12:33:13.964Z,4.50
2022-11-10T12:36:05.955Z,5.35
2022-11-10T12:39:04.098Z,4.05
2022-11-10T12:42:00.137Z,4.93
2022-11-10T12:45:01.422Z,9.25
2022-11-10T12:47:49.669Z,3.78
2022-11-10T12:50:48.253Z,4.53
2022-11-10T12:53:40.535Z,4.07
2022-11-10T12:56:33.677Z,4.45
2022-11-10T12:59:29.235Z,3.50
2022-11-10T13:02:26.378Z,4.20
2022-11-10T13:05:29.927Z,6.00
2022-11-10T13:08:27.243Z,5.43
2022-11-10T13:11:34.263Z,7.38
2022-11-10T13:14:26.895Z,5.10
2022-11-10T13:17:47.554Z,5.57
2022-11-10T13:20:49.188Z,3.70
2022-11-10T13:24:20.773Z,5.35
2022-11-10T13:27:14.964Z,5.43
2022-11-10T13:30:02.314Z,4.05
2022-11-10T13:32:49.494Z,6.30
2022-11-10T13:35:56.028Z,5.90
2022-11-10T13:38:44.354Z,4.72
2022-11-10T13:41:34.601Z,6.13
2022-11-10T13:44:28.609Z,6.50
2022-11-10T13:47:47.693Z,3.67
2022-11-10T13:50:48.858Z,4.65
2022-11-10T13:53:47.479Z,4.28
2022-11-10T13:56:51.588Z,5.70
2022-11-10T13:59:50.486Z,4.05
2022-11-10T14:02:53.201Z,4.90
2022-11-10T14:06:03.494Z,3.42
2022-11-10T14:08:56.136Z,3.35
2022-11-10T14:11:50.142Z,8.68
2022-11-10T14:14:48.490Z,4.15
2022-11-10T14:17:41.809Z,6.63
2022-11-10T14:20:35.274Z,4.68
2022-11-10T14:23:27.371Z,4.72
2022-11-10T14:26:23.170Z,3.30
2022-11-10T14:29:30.895Z,3.88
2022-11-10T14:32:22.488Z,4.30
2022-11-10T14:35:20.882Z,3.65
2022-11-10T14:38:20.421Z,5.57
2022-11-10T14:41:15.322Z,5.82
2022-11-10T14:44:03.747Z,6.38
2022-11-10T14:46:51.061Z,3.20
2022-11-10T14:49:39.677Z,4.55
2022-11-10T14:52:26.496Z,6.80
2022-11-10T14:55:19.278Z,3.67
2022-11-10T14:58:14.874Z,6.10
2022-11-10T15:01:03.216Z,4.72
2022-11-10T15:03:50.438Z,6.03
2022-11-10T15:06:45.754Z,9.38
2022-11-10T15:09:34.196Z,6.57
2022-11-10T15:12:27.073Z,3.72
2022-11-10T15:15:21.726Z,5.18
2022-11-10T15:18:27.042Z,4.20
2022-11-10T15:21:14.617Z,4.82
2022-11-10T15:24:06.767Z,4.60
2022-11-10T15:26:54.251Z,8.45
2022-11-10T15:29:42.350Z,7.28
2022-11-10T15:32:35.593Z,9.95
2022-11-10T15:35:33.515Z,6.38
2022-11-10T15:38:29.304Z,6.88
2022-11-10T15:41:27.726Z,8.82
2022-11-10T15:44:16.249Z,11.07
2022-11-10T15:47:05.629Z,7.80
2022-11-10T15:49:52.689Z,7.87
2022-11-10T15:52:40.414Z,9.67
2022-11-10T15:55:27.127Z,7.83
2022-11-10T15:58:18.174Z,10.43
2022-11-10T16:01:05.795Z,8.03
2022-11-10T16:03:52.841Z,10.20
2022-11-10T16:06:40.850Z,10.23
2022-11-10T16:09:28.513Z,9.93
2022-11-10T16:12:19.303Z,8.70
2022-11-10T16:15:14.778Z,10.37
2022-11-10T16:18:01.787Z,13.27
2022-11-10T16:20:48.938Z,17.20
2022-11-10T16:23:36.008Z,15.03
2022-11-10T16:26:25.913Z,15.33
2022-11-10T16:29:15.387Z,19.50
2022-11-10T16:32:04.376Z,16.43
2022-11-10T16:34:51.629Z,15.17
2022-11-10T16:37:38.513Z,15.60
2022-11-10T16:40:25.881Z,14.00
2022-11-10T16:43:16.794Z,14.30
2022-11-10T16:46:07.542Z,17.07
2022-11-10T16:48:58.623Z,24.97
2022-11-10T16:51:49.102Z,31.40
2022-11-10T16:54:36.582Z,25.27
2022-11-10T16:57:23.415Z,32.67
2022-11-10T17:00:12.845Z,19.47
2022-11-10T17:03:03.277Z,24.27
2022-11-10T17:05:51.707Z,19.07
2022-11-10T17:08:38.801Z,16.23
2022-11-10T17:11:26.072Z,15.23
2022-11-10T17:14:13.956Z,13.47
2022-11-10T17:17:01.125Z,12.10
2022-11-10T17:19:50.330Z,9.03
2022-11-10T17:22:38.601Z,10.63
2022-11-10T17:25:28.637Z,12.20
2022-11-10T17:28:17.383Z,11.37
2022-11-10T17:31:04.571Z,10.93
2022-11-10T17:33:51.764Z,13.13
2022-11-10T17:36:39.208Z,17.40
2022-11-10T17:39:27.803Z,22.83
2022-11-10T17:42:15.136Z,26.70
2022-11-10T17:45:02.022Z,26.00
2022-11-10T17:47:50.751Z,27.70
2022-11-10T17:50:39.290Z,21.83
2022-11-10T17:53:28.270Z,22.97
2022-11-10T17:56:16.682Z,29.73
2022-11-10T17:59:03.956Z,27.97
2022-11-10T18:01:51.471Z,27.57
2022-11-10T18:04:38.607Z,30.33
2022-11-10T18:07:25.640Z,30.63
2022-11-10T18:10:15.242Z,32.97
2022-11-10T18:13:03.646Z,31.27
2022-11-10T18:15:54.299Z,35.00
2022-11-10T18:18:42.244Z,30.87
2022-11-10T18:21:29.430Z,33.20
2022-11-10T18:24:16.665Z,33.07
2022-11-10T18:27:03.864Z,34.00
2022-11-10T18:29:53.622Z,32.10
2022-11-10T18:32:40.891Z,35.83
2022-11-10T18:35:28.005Z,36.43
2022-11-10T18:38:15.211Z,37.37
2022-11-10T18:41:25.675Z,37.27
2022-11-10T18:44:12.458Z,29.93
2022-11-10T18:47:00.691Z,35.27
2022-11-10T18:49:47.794Z,38.87
2022-11-10T18:52:34.523Z,38.17
2022-11-10T18:55:21.703Z,26.13
2022-11-10T18:58:08.638Z,27.83
2022-11-10T19:01:03.099Z,31.50
2022-11-10T19:03:51.548Z,26.00
2022-11-10T19:06:40.251Z,27.03
2022-11-10T19:09:27.781Z,31.27
2022-11-10T19:12:15.165Z,26.03
2022-11-10T19:15:02.730Z,25.87
2022-11-10T19:17:49.926Z,24.83
2022-11-10T19:20:39.321Z,29.63
2022-11-10T19:23:26.575Z,27.00
2022-11-10T19:26:19.529Z,33.70
2022-11-10T19:29:09.498Z,35.07
2022-11-10T19:31:56.784Z,29.70
2022-11-10T19:34:43.647Z,36.93
2022-11-10T19:37:35.592Z,40.87
2022-11-10T19:40:22.701Z,40.33
2022-11-10T19:43:10.273Z,49.77
2022-11-10T19:45:58.178Z,43.40
2022-11-10T19:48:45.663Z,47.03
2022-11-10T19:51:34.192Z,38.77
2022-11-10T19:54:22.861Z,35.50
2022-11-10T19:57:10.501Z,40.87
2022-11-10T19:59:58.127Z,43.97
2022-11-10T20:02:45.921Z,37.40
2022-11-10T20:05:33.181Z,41.60
2022-11-10T20:08:19.971Z,52.07
2022-11-10T20:11:10.434Z,44.23
2022-11-10T20:13:59.489Z,41.03
2022-11-10T20:16:46.927Z,47.40
2022-11-10T20:19:40.907Z,85.50
2022-11-10T20:22:28.616Z,50.50
2022-11-10T20:25:16.117Z,34.53
2022-11-10T20:28:06.444Z,47.43
2022-11-10T20:30:57.408Z,46.80
2022-11-10T20:33:45.556Z,31.57
2022-11-10T20:36:34.187Z,21.10
2022-11-10T20:39:21.344Z,18.47
2022-11-10T20:42:10.417Z,19.57
2022-11-10T20:44:58.830Z,20.10
2022-11-10T20:47:45.609Z,37.80
2022-11-10T20:50:33.513Z,40.30
2022-11-10T20:53:20.847Z,41.27
2022-11-10T20:56:08.723Z,40.90
2022-11-10T20:58:56.799Z,39.63
2022-11-10T21:01:45.484Z,33.53
2022-11-10T21:04:32.355Z,42.87
2022-11-10T21:07:19.201Z,41.70
2022-11-10T21:10:07.701Z,39.23
2022-11-10T21:12:55.054Z,43.27
2022-11-10T21:15:42.758Z,41.43
2022-11-10T21:18:33.501Z,39.17
2022-11-10T21:21:23.392Z,38.70
2022-11-10T21:24:12.398Z,32.33
2022-11-10T21:26:59.889Z,32.03
2022-11-10T21:29:47.026Z,28.33
2022-11-10T21:32:33.950Z,30.93
2022-11-10T21:35:22.860Z,28.07
2022-11-10T21:38:25.395Z,24.53
2022-11-10T21:41:13.406Z,20.20
2022-11-10T21:44:00.752Z,17.53
2022-11-10T21:46:47.798Z,20.03
2022-11-10T21:49:35.049Z,20.63
2022-11-10T21:52:23.106Z,20.00
2022-11-10T21:55:10.659Z,16.60
2022-11-10T21:57:59.030Z,20.93
2022-11-10T22:00:45.805Z,14.27
2022-11-10T22:03:33.655Z,21.03
2022-11-10T22:06:21.257Z,19.10
2022-11-10T22:09:09.659Z,19.23
2022-11-10T22:12:13.974Z,25.47
2022-11-10T22:15:18.354Z,26.00
2022-11-10T22:18:25.053Z,27.30
2022-11-10T22:21:12.153Z,19.47
2022-11-10T22:24:16.730Z,16.50
2022-11-10T22:27:05.895Z,53.07
2022-11-10T22:29:52.919Z,62.70
2022-11-10T22:32:39.773Z,27.63
2022-11-10T22:35:40.305Z,216.70
2022-11-10T22:38:27.299Z,161.63
2022-11-10T22:41:33.435Z,264.13
2022-11-10T22:44:24.991Z,210.13
2022-11-10T22:47:12.261Z,75.97
2022-11-10T22:49:59.380Z,137.20
2022-11-10T22:52:46.295Z,96.90
2022-11-10T22:55:33.141Z,209.00
2022-11-10T22:58:20.297Z,153.13
2022-11-10T23:01:10.971Z,125.50
2022-11-10T23:03:59.079Z,101.43
2022-11-10T23:06:46.186Z,149.70
2022-11-10T23:09:34.892Z,151.33
2022-11-10T23:12:21.869Z,214.43
2022-11-10T23:15:09.747Z,147.03
2022-11-10T23:18:03.748Z,142.17
2022-11-10T23:21:00.419Z,193.57
2022-11-10T23:23:48.539Z,75.60
2022-11-10T23:26:35.423Z,56.00
2022-11-10T23:29:22.188Z,31.73
2022-11-10T23:32:08.982Z,31.17
2022-11-10T23:34:57.124Z,24.40
2022-11-10T23:37:43.822Z,29.43
2022-11-10T23:40:30.916Z,27.57
2022-11-10T23:43:18.175Z,32.10
2022-11-10T23:46:08.122Z,31.43
2022-11-10T23:48:55.931Z,25.17
2022-11-10T23:51:44.698Z,27.17
2022-11-10T23:54:32.277Z,25.73
2022-11-10T23:57:19.692Z,25.80
